Time,TemperatureF,DewpointF,PressureIn,WindDirection,WindDirectionDegrees,WindSpeedMPH,WindSpeedGustMPH,Humidity,HourlyPrecipIn,Conditions,Clouds,dailyrainin,SoftwareType,DateUTC
2013-09-10 00:13:00,79.0,71.0,29.89,SW,225,3.0,8.0,77,0.00,,,0.00,,2013-09-10 05:13:00,
2013-09-10 00:23:00,78.0,71.0,29.89,SW,226,3.0,7.0,78,0.00,,,0.00,,2013-09-10 05:23:00,
2013-09-10 00:43:00,77.0,70.0,29.89,WSW,245,2.0,6.0,79,0.00,,,0.00,,2013-09-10 05:43:00,
2013-09-10 00:53:00,76.0,69.0,29.89,WSW,240,2.0,5.0,80,0.00,,,0.00,,2013-09-10 05:53:00,
2013-09-10 01:12:00,76.0,70.0,29.89,SSW,211,2.0,6.0,81,0.00,,,0.00,,2013-09-10 06:12:00,
2013-09-10 01:22:00,75.0,69.0,29.90,WSW,238,3.0,6.0,82,0.00,,,0.00,,2013-09-10 06:22:00,
2013-09-10 01:43:00,75.0,69.0,29.90,West,263,2.0,6.0,82,0.00,,,0.00,,2013-09-10 06:43:00,
2013-09-10 01:52:00,75.0,69.0,29.90,SSW,203,2.0,7.0,83,0.00,,,0.00,,2013-09-10 06:52:00,
2013-09-10 02:12:00,74.0,69.0,29.90,SW,221,1.0,6.0,84,0.00,,,0.00,,2013-09-10 07:12:00,
2013-09-10 02:22:00,74.0,69.0,29.90,SW,220,1.0,5.0,85,0.00,,,0.00,,2013-09-10 07:22:00,
2013-09-10 02:42:00,73.0,68.0,29.90,South,169,1.0,5.0,85,0.00,,,0.00,,2013-09-10 07:42:00,
2013-09-10 02:52:00,73.0,68.0,29.91,SW,233,1.0,6.0,85,0.00,,,0.00,,2013-09-10 07:52:00,
2013-09-10 03:12:00,73.0,68.0,29.91,WSW,238,1.0,6.0,84,0.00,,,0.00,,2013-09-10 08:12:00,
2013-09-10 03:22:00,73.0,68.0,29.91,SW,224,1.0,5.0,84,0.00,,,0.00,,2013-09-10 08:22:00,
2013-09-10 03:52:00,72.0,67.0,29.91,SW,229,2.0,5.0,85,0.00,,,0.00,,2013-09-10 08:52:00,
2013-09-10 04:11:00,72.0,67.0,29.91,SW,234,1.0,4.0,85,0.00,,,0.00,,2013-09-10 09:11:00,
2013-09-10 04:22:00,72.0,67.0,29.92,SW,234,0.0,4.0,84,0.00,,,0.00,,2013-09-10 09:22:00,
2013-09-10 04:43:00,72.0,67.0,29.92,SW,227,0.0,4.0,84,0.00,,,0.00,,2013-09-10 09:43:00,
2013-09-10 04:54:00,71.0,66.0,29.93,SW,219,0.0,3.0,84,0.00,,,0.00,,2013-09-10 09:54:00,
2013-09-10 05:13:00,71.0,66.0,29.93,SSW,204,1.0,3.0,84,0.00,,,0.00,,2013-09-10 10:13:00,
2013-09-10 05:23:00,71.0,66.0,29.93,SSW,196,1.0,4.0,83,0.00,,,0.00,,2013-09-10 10:23:00,
2013-09-10 05:42:00,71.0,66.0,29.94,SW,234,1.0,4.0,83,0.00,,,0.00,,2013-09-10 10:42:00,
2013-09-10 05:53:00,71.0,66.0,29.94,SW,217,1.0,4.0,83,0.00,,,0.00,,2013-09-10 10:53:00,
2013-09-10 06:12:00,71.0,66.0,29.94,SW,215,1.0,4.0,84,0.00,,,0.00,,2013-09-10 11:12:00,
2013-09-10 06:22:00,71.0,66.0,29.95,SW,232,1.0,5.0,84,0.00,,,0.00,,2013-09-10 11:22:00,
2013-09-10 06:42:00,70.0,65.0,29.95,SSW,213,3.0,6.0,84,0.00,,,0.00,,2013-09-10 11:42:00,
2013-09-10 06:52:00,70.0,65.0,29.96,SSW,211,1.0,6.0,84,0.00,,,0.00,,2013-09-10 11:52:00,
2013-09-10 07:12:00,70.0,65.0,29.96,SW,219,0.0,3.0,84,0.00,,,0.00,,2013-09-10 12:12:00,
2013-09-10 07:22:00,70.0,65.0,29.97,West,269,1.0,5.0,84,0.00,,,0.00,,2013-09-10 12:22:00,
2013-09-10 07:42:00,71.0,66.0,29.97,South,186,1.0,6.0,83,0.00,,,0.00,,2013-09-10 12:42:00,
2013-09-10 07:52:00,71.0,65.0,29.98,SSW,211,1.0,4.0,82,0.00,,,0.00,,2013-09-10 12:52:00,
2013-09-10 08:11:00,72.0,66.0,29.98,SSW,202,1.0,5.0,81,0.00,,,0.00,,2013-09-10 13:11:00,
2013-09-10 08:21:00,73.0,66.0,29.99,SSW,195,2.0,6.0,80,0.00,,,0.00,,2013-09-10 13:21:00,
2013-09-10 08:42:00,74.0,66.0,29.99,SSE,160,1.0,6.0,77,0.00,,,0.00,,2013-09-10 13:42:00,
2013-09-10 08:52:00,74.0,66.0,29.99,South,181,2.0,7.0,77,0.00,,,0.00,,2013-09-10 13:52:00,
2013-09-10 09:11:00,74.0,67.0,29.99,SSW,211,3.0,6.0,79,0.00,,,0.00,,2013-09-10 14:11:00,
2013-09-10 09:21:00,77.0,68.0,30.00,SSW,211,2.0,7.0,75,0.00,,,0.00,,2013-09-10 14:21:00,
2013-09-10 09:42:00,79.0,68.0,30.00,SW,228,3.0,10.0,70,0.00,,,0.00,,2013-09-10 14:42:00,
2013-09-10 09:52:00,80.0,68.0,30.00,West,267,2.0,5.0,68,0.00,,,0.00,,2013-09-10 14:52:00,
2013-09-10 10:12:00,81.0,68.0,30.00,West,259,3.0,8.0,64,0.00,,,0.00,,2013-09-10 15:12:00,
2013-09-10 10:22:00,83.0,69.0,30.01,WSW,242,3.0,9.0,63,0.00,,,0.00,,2013-09-10 15:22:00,
2013-09-10 10:43:00,85.0,69.0,30.01,SW,215,3.0,10.0,59,0.00,,,0.00,,2013-09-10 15:43:00,
2013-09-10 10:54:00,85.0,69.0,30.00,WNW,302,4.0,8.0,59,0.00,,,0.00,,2013-09-10 15:54:00,
2013-09-10 11:13:00,86.0,69.0,30.01,SW,232,4.0,9.0,57,0.00,,,0.00,,2013-09-10 16:13:00,
2013-09-10 11:23:00,88.0,69.0,30.00,WSW,258,3.0,9.0,54,0.00,,,0.00,,2013-09-10 16:23:00,
2013-09-10 11:43:00,89.0,70.0,30.00,SW,227,3.0,9.0,54,0.00,,,0.00,,2013-09-10 16:43:00,
2013-09-10 11:53:00,89.0,69.0,30.00,SW,219,4.0,9.0,52,0.00,,,0.00,,2013-09-10 16:53:00,
2013-09-10 12:12:00,90.0,69.0,30.00,SW,229,5.0,10.0,50,0.00,,,0.00,,2013-09-10 17:12:00,
2013-09-10 12:23:00,90.0,69.0,30.00,WSW,247,4.0,9.0,51,0.00,,,0.00,,2013-09-10 17:23:00,
2013-09-10 12:52:00,92.0,70.0,29.99,WSW,238,4.0,11.0,49,0.00,,,0.00,,2013-09-10 17:52:00,
2013-09-10 13:12:00,92.0,69.0,29.99,WSW,258,4.0,10.0,48,0.00,,,0.00,,2013-09-10 18:12:00,
2013-09-10 13:22:00,93.0,70.0,29.98,West,264,5.0,10.0,47,0.00,,,0.00,,2013-09-10 18:22:00,
2013-09-10 13:43:00,93.0,68.0,29.98,South,188,4.0,9.0,44,0.00,,,0.00,,2013-09-10 18:43:00,
2013-09-10 13:52:00,93.0,67.0,29.98,SW,234,6.0,14.0,43,0.00,,,0.00,,2013-09-10 18:52:00,
2013-09-10 14:12:00,94.0,67.0,29.98,WSW,257,6.0,11.0,41,0.00,,,0.00,,2013-09-10 19:12:00,
2013-09-10 14:22:00,94.0,67.0,29.98,SW,232,5.0,13.0,42,0.00,,,0.00,,2013-09-10 19:22:00,
2013-09-10 14:42:00,94.0,66.0,29.97,West,259,6.0,12.0,40,0.00,,,0.00,,2013-09-10 19:42:00,
2013-09-10 14:52:00,95.0,68.0,29.97,SW,234,5.0,13.0,41,0.00,,,0.00,,2013-09-10 19:52:00,
2013-09-10 15:12:00,95.0,66.0,29.96,South,182,5.0,12.0,39,0.00,,,0.00,,2013-09-10 20:12:00,
2013-09-10 15:21:00,95.0,65.0,29.96,SSW,193,6.0,13.0,38,0.00,,,0.00,,2013-09-10 20:21:00,
2013-09-10 15:42:00,95.0,65.0,29.96,West,259,4.0,15.0,38,0.00,,,0.00,,2013-09-10 20:42:00,
2013-09-10 15:52:00,95.0,65.0,29.96,WSW,240,7.0,16.0,37,0.00,,,0.00,,2013-09-10 20:52:00,
2013-09-10 16:11:00,95.0,65.0,29.95,SSW,208,5.0,11.0,37,0.00,,,0.00,,2013-09-10 21:11:00,
2013-09-10 16:23:00,95.0,65.0,29.95,SW,223,6.0,15.0,38,0.00,,,0.00,,2013-09-10 21:23:00,
2013-09-10 16:44:00,95.0,66.0,29.94,WSW,248,5.0,12.0,39,0.00,,,0.00,,2013-09-10 21:44:00,
2013-09-10 16:54:00,94.0,65.0,29.94,WSW,248,6.0,15.0,39,0.00,,,0.00,,2013-09-10 21:54:00,
2013-09-10 17:14:00,93.0,64.0,29.93,SW,232,6.0,14.0,39,0.00,,,0.00,,2013-09-10 22:14:00,
2013-09-10 17:24:00,94.0,66.0,29.93,SSW,200,4.0,10.0,40,0.00,,,0.00,,2013-09-10 22:24:00,
2013-09-10 17:42:00,93.0,65.0,29.93,SW,220,4.0,11.0,40,0.00,,,0.00,,2013-09-10 22:42:00,
2013-09-10 17:54:00,92.0,63.0,29.93,SW,217,6.0,12.0,39,0.00,,,0.00,,2013-09-10 22:54:00,
2013-09-10 18:13:00,92.0,64.0,29.94,SW,230,4.0,13.0,40,0.00,,,0.00,,2013-09-10 23:13:00,
2013-09-10 18:23:00,91.0,65.0,29.95,SSW,207,5.0,9.0,42,0.00,,,0.00,,2013-09-10 23:23:00,
2013-09-10 18:42:00,90.0,65.0,29.95,WSW,240,4.0,7.0,44,0.00,,,0.00,,2013-09-10 23:42:00,
2013-09-10 18:53:00,89.0,65.0,29.96,SSW,194,2.0,6.0,46,0.00,,,0.00,,2013-09-10 23:53:00,
2013-09-10 19:11:00,87.0,65.0,29.96,SSW,209,2.0,6.0,48,0.00,,,0.00,,2013-09-11 00:11:00,
2013-09-10 19:22:00,86.0,66.0,29.96,SSW,200,1.0,6.0,51,0.00,,,0.00,,2013-09-11 00:22:00,
2013-09-10 19:42:00,84.0,65.0,29.96,SW,226,0.0,6.0,53,0.00,,,0.00,,2013-09-11 00:42:00,
2013-09-10 19:52:00,83.0,66.0,29.97,SW,232,0.0,5.0,56,0.00,,,0.00,,2013-09-11 00:52:00,
2013-09-10 20:11:00,82.0,66.0,29.98,South,185,1.0,5.0,59,0.00,,,0.00,,2013-09-11 01:11:00,
2013-09-10 20:21:00,81.0,66.0,29.98,SSW,194,1.0,3.0,60,0.00,,,0.00,,2013-09-11 01:21:00,
2013-09-10 20:42:00,81.0,66.0,29.99,SW,227,0.0,3.0,60,0.00,,,0.00,,2013-09-11 01:42:00,
2013-09-10 20:53:00,81.0,66.0,29.98,SW,216,1.0,5.0,60,0.00,,,0.00,,2013-09-11 01:53:00,
2013-09-10 21:11:00,80.0,65.0,29.99,SSW,199,1.0,5.0,61,0.00,,,0.00,,2013-09-11 02:11:00,
2013-09-10 21:22:00,79.0,65.0,29.99,SSW,193,2.0,4.0,63,0.00,,,0.00,,2013-09-11 02:22:00,
2013-09-10 21:43:00,79.0,66.0,29.99,SSW,202,1.0,4.0,65,0.00,,,0.00,,2013-09-11 02:43:00,
2013-09-10 21:52:00,79.0,66.0,29.99,South,173,2.0,5.0,65,0.00,,,0.00,,2013-09-11 02:52:00,
2013-09-10 22:12:00,79.0,66.0,29.99,SSW,192,2.0,5.0,64,0.00,,,0.00,,2013-09-11 03:12:00,
2013-09-10 22:22:00,79.0,66.0,30.00,SW,215,1.0,4.0,64,0.00,,,0.00,,2013-09-11 03:22:00,
2013-09-10 22:45:00,79.0,66.0,30.00,SW,235,3.0,6.0,65,0.00,,,0.00,,2013-09-11 03:45:00,
2013-09-10 22:54:00,78.0,67.0,30.00,SW,221,3.0,7.0,68,0.00,,,0.00,,2013-09-11 03:54:00,
2013-09-10 23:14:00,77.0,66.0,30.00,SW,217,3.0,5.0,70,0.00,,,0.00,,2013-09-11 04:14:00,
2013-09-10 23:24:00,77.0,66.0,30.00,SSW,211,1.0,6.0,70,0.00,,,0.00,,2013-09-11 04:24:00,
2013-09-10 23:43:00,77.0,66.0,30.00,SW,219,2.0,7.0,70,0.00,,,0.00,,2013-09-11 04:43:00,
2013-09-10 23:54:00,76.0,66.0,29.99,SW,220,2.0,6.0,71,0.00,,,0.00,,2013-09-11 04:54:00,